createdAt,value
2018-05-08T00:01:25.892Z,68.10
2018-05-08T00:03:54.943Z,68.00
2018-05-08T00:06:23.297Z,68.00
2018-05-08T00:08:51.581Z,68.60
2018-05-08T00:11:19.829Z,68.70
2018-05-08T00:13:48.112Z,69.00
2018-05-08T00:16:16.392Z,69.50
2018-05-08T00:18:44.643Z,69.70
2018-05-08T00:21:12.960Z,69.90
2018-05-08T00:23:41.223Z,71.20
2018-05-08T00:26:09.471Z,71.20
2018-05-08T00:28:38.497Z,71.40
2018-05-08T00:31:06.761Z,71.30
2018-05-08T00:33:35.020Z,71.70
2018-05-08T00:36:03.273Z,71.60
2018-05-08T00:38:32.309Z,72.30
2018-05-08T00:41:01.665Z,72.30
2018-05-08T00:43:29.987Z,72.40
2018-05-08T00:45:58.269Z,72.80
2018-05-08T00:48:26.539Z,72.90
2018-05-08T00:50:54.792Z,72.90
2018-05-08T00:53:23.029Z,72.90
2018-05-08T00:55:51.271Z,72.90
2018-05-08T00:58:19.541Z,72.90
2018-05-08T01:00:47.784Z,72.40
2018-05-08T01:03:16.040Z,72.60
2018-05-08T01:05:45.055Z,73.60
2018-05-08T01:08:13.365Z,73.50
2018-05-08T01:10:41.617Z,73.50
2018-05-08T01:13:09.873Z,73.90
2018-05-08T01:15:38.886Z,74.50
2018-05-08T01:18:07.176Z,74.50
2018-05-08T01:20:35.468Z,74.80
2018-05-08T01:23:03.717Z,75.00
2018-05-08T01:25:32.015Z,75.10
2018-05-08T01:28:00.268Z,75.20
2018-05-08T01:30:28.520Z,75.60
2018-05-08T01:32:57.532Z,76.00
2018-05-08T01:35:25.775Z,75.90
2018-05-08T01:37:54.028Z,76.50
2018-05-08T01:40:23.415Z,77.00
2018-05-08T01:42:51.666Z,77.00
2018-05-08T01:45:19.919Z,77.30
2018-05-08T01:47:48.923Z,78.20
2018-05-08T01:50:17.872Z,78.20
2018-05-08T01:52:47.620Z,78.40
2018-05-08T01:55:15.925Z,78.40
2018-05-08T01:57:44.203Z,78.40
2018-05-08T02:00:12.444Z,78.90
2018-05-08T02:02:41.584Z,79.10
2018-05-08T02:05:09.852Z,79.10
2018-05-08T02:07:38.111Z,78.90
2018-05-08T02:10:07.261Z,78.90
2018-05-08T02:12:35.599Z,79.00
2018-05-08T02:15:03.883Z,78.90
2018-05-08T02:17:32.136Z,79.20
2018-05-08T02:20:00.427Z,78.20
2018-05-08T02:22:28.712Z,77.40
2018-05-08T02:24:56.977Z,77.80
2018-05-08T02:27:25.233Z,77.90
2018-05-08T02:29:53.472Z,78.10
2018-05-08T02:32:21.731Z,78.80
2018-05-08T02:34:51.514Z,79.20
2018-05-08T02:37:19.765Z,79.20
2018-05-08T02:39:48.067Z,79.40
2018-05-08T02:42:16.319Z,80.00
2018-05-08T02:44:44.572Z,79.90
2018-05-08T02:47:13.638Z,80.40
2018-05-08T02:49:41.921Z,80.30
2018-05-08T02:52:10.181Z,80.60
2018-05-08T02:54:38.452Z,80.70
2018-05-08T02:57:06.807Z,81.00
2018-05-08T02:59:35.059Z,81.20
2018-05-08T03:02:04.088Z,81.90
2018-05-08T03:04:32.327Z,81.90
2018-05-08T03:07:01.340Z,82.00
2018-05-08T03:09:29.590Z,81.90
2018-05-08T03:11:59.578Z,82.40
2018-05-08T03:14:27.787Z,82.40
2018-05-08T03:16:56.045Z,82.50
2018-05-08T03:19:25.052Z,82.70
2018-05-08T03:21:53.324Z,82.70
2018-05-08T03:24:22.352Z,83.10
2018-05-08T03:26:50.597Z,83.00
2018-05-08T03:29:18.856Z,83.20
2018-05-08T03:31:47.866Z,83.50
2018-05-08T03:34:16.125Z,83.50
2018-05-08T03:36:45.140Z,83.30
2018-05-08T03:39:13.400Z,83.30
2018-05-08T03:41:42.417Z,83.40
2018-05-08T03:44:10.676Z,83.40
2018-05-08T03:46:38.971Z,83.30
2018-05-08T03:49:07.259Z,83.40
2018-05-08T03:51:35.534Z,83.30
2018-05-08T03:54:03.809Z,83.10
2018-05-08T03:56:32.065Z,82.60
2018-05-08T03:59:01.003Z,82.40
2018-05-08T04:01:41.249Z,82.10
2018-05-08T04:04:21.320Z,81.60
2018-05-08T04:07:02.459Z,81.00
2018-05-08T04:09:30.720Z,80.30
2018-05-08T04:11:58.968Z,79.60
2018-05-08T04:14:27.994Z,78.80
2018-05-08T04:16:56.236Z,78.80
2018-05-08T04:19:25.264Z,77.40
2018-05-08T04:21:53.508Z,77.30
2018-05-08T04:24:22.529Z,75.50
2018-05-08T04:26:50.812Z,75.40
2018-05-08T04:29:19.073Z,74.90
2018-05-08T04:31:47.316Z,73.60
2018-05-08T04:34:16.342Z,71.50
2018-05-08T04:36:44.632Z,71.50
2018-05-08T04:39:12.905Z,70.60
2018-05-08T04:41:41.152Z,69.10
2018-05-08T04:44:10.166Z,65.40
2018-05-08T04:46:38.468Z,65.30
2018-05-08T04:49:07.486Z,62.70
2018-05-08T04:51:35.712Z,61.30
2018-05-08T04:54:03.997Z,60.20
2018-05-08T04:56:32.244Z,59.30
2018-05-08T04:59:00.553Z,58.70
2018-05-08T05:01:28.824Z,56.80
2018-05-08T05:03:57.072Z,55.80
2018-05-08T05:06:25.376Z,55.50
2018-05-08T05:08:53.616Z,54.40
2018-05-08T05:11:22.639Z,54.60
2018-05-08T05:13:50.927Z,54.60
2018-05-08T05:16:19.200Z,55.40
2018-05-08T05:18:47.444Z,55.20
2018-05-08T05:21:15.715Z,54.60
2018-05-08T05:23:44.744Z,54.20
2018-05-08T05:26:13.017Z,54.20
2018-05-08T05:28:41.291Z,52.90
2018-05-08T05:31:09.575Z,52.70
2018-05-08T05:33:37.820Z,52.70
2018-05-08T05:36:06.831Z,51.40
2018-05-08T05:38:35.077Z,51.30
2018-05-08T05:41:04.145Z,49.30
2018-05-08T05:43:32.363Z,49.20
2018-05-08T05:46:00.685Z,47.40
2018-05-08T05:48:28.970Z,46.00
2018-05-08T05:50:57.214Z,45.10
2018-05-08T05:53:25.498Z,43.20
2018-05-08T05:55:53.736Z,40.60
2018-05-08T05:58:22.022Z,37.80
2018-05-08T06:00:50.304Z,38.00
2018-05-08T06:03:18.548Z,36.70
2018-05-08T06:05:47.555Z,36.90
2018-05-08T06:08:15.856Z,36.90
2018-05-08T06:10:44.103Z,37.70
2018-05-08T06:13:12.341Z,37.60
2018-05-08T06:15:40.677Z,36.60
2018-05-08T06:18:08.973Z,36.70
2018-05-08T06:20:37.324Z,34.50
2018-05-08T06:23:05.640Z,34.10
2018-05-08T06:25:33.981Z,33.50
2018-05-08T06:28:02.258Z,33.80
2018-05-08T06:30:30.535Z,35.20
2018-05-08T06:32:58.788Z,36.90
2018-05-08T06:35:27.027Z,38.50
2018-05-08T06:37:56.148Z,39.80
2018-05-08T06:40:25.172Z,46.20
2018-05-08T06:42:53.428Z,46.20
2018-05-08T06:45:21.665Z,47.80
2018-05-08T06:47:49.999Z,49.20
2018-05-08T06:50:18.269Z,47.90
2018-05-08T06:52:46.516Z,47.10
2018-05-08T06:55:15.544Z,47.90
2018-05-08T06:57:43.820Z,47.90
2018-05-08T07:00:12.091Z,47.70
2018-05-08T07:02:40.351Z,48.10
2018-05-08T07:05:08.589Z,48.20
2018-05-08T07:07:36.836Z,49.40
2018-05-08T07:10:05.079Z,47.90
2018-05-08T07:12:33.324Z,49.20
2018-05-08T07:15:02.356Z,48.00
2018-05-08T07:17:30.611Z,48.00
2018-05-08T07:19:58.915Z,47.30
2018-05-08T07:22:27.184Z,46.50
2018-05-08T07:24:55.428Z,46.60
2018-05-08T07:27:24.564Z,44.40
2018-05-08T07:29:52.888Z,44.40
2018-05-08T07:32:21.110Z,46.50
2018-05-08T07:34:49.352Z,46.10
2018-05-08T07:37:18.481Z,47.30
2018-05-08T07:39:46.827Z,47.30
2018-05-08T07:42:15.136Z,46.80
2018-05-08T07:44:43.384Z,46.20
2018-05-08T07:47:11.737Z,45.40
2018-05-08T07:49:40.752Z,45.60
2018-05-08T07:52:08.996Z,45.60
2018-05-08T07:54:37.252Z,46.30
2018-05-08T07:57:05.505Z,48.60
2018-05-08T07:59:33.753Z,49.00
2018-05-08T08:02:02.058Z,49.30
2018-05-08T08:04:30.336Z,48.90
2018-05-08T08:06:58.604Z,50.10
2018-05-08T08:09:26.883Z,51.50
2018-05-08T08:11:56.845Z,51.30
2018-05-08T08:14:25.081Z,50.70
2018-05-08T08:16:54.100Z,52.10
2018-05-08T08:19:22.436Z,51.10
2018-05-08T08:21:50.715Z,52.00
2018-05-08T08:24:18.978Z,52.90
2018-05-08T08:26:47.217Z,51.70
2018-05-08T08:29:16.248Z,50.90
2018-05-08T08:31:44.527Z,50.90
2018-05-08T08:34:12.800Z,49.00
2018-05-08T08:36:41.088Z,50.40
2018-05-08T08:39:09.332Z,52.00
2018-05-08T08:41:37.588Z,51.60
2018-05-08T08:44:06.602Z,50.60
2018-05-08T08:46:34.948Z,50.60
2018-05-08T08:49:03.897Z,48.50
2018-05-08T08:51:32.168Z,48.40
2018-05-08T08:54:00.409Z,47.10
2018-05-08T08:56:29.427Z,46.10
2018-05-08T08:58:57.712Z,46.10
2018-05-08T09:01:25.987Z,42.50
2018-05-08T09:03:54.309Z,42.90
2018-05-08T09:06:23.261Z,43.40
2018-05-08T09:08:51.531Z,43.40
2018-05-08T09:11:19.871Z,43.20
2018-05-08T09:13:48.052Z,43.80
2018-05-08T09:16:17.067Z,42.90
2018-05-08T09:18:45.394Z,42.80
2018-05-08T09:21:13.620Z,43.50
2018-05-08T09:23:41.856Z,45.10
2018-05-08T09:26:10.137Z,44.20
2018-05-08T09:28:39.184Z,43.10
2018-05-08T09:31:07.428Z,43.10
2018-05-08T09:33:35.680Z,43.10
2018-05-08T09:36:04.684Z,41.80
2018-05-08T09:38:33.700Z,41.60
2018-05-08T09:41:02.002Z,41.60
2018-05-08T09:43:30.976Z,41.80
2018-05-08T09:45:59.228Z,41.80
2018-05-08T09:48:27.534Z,42.40
2018-05-08T09:50:55.772Z,39.60
2018-05-08T09:53:24.080Z,40.80
2018-05-08T09:55:52.320Z,42.60
2018-05-08T09:58:20.579Z,42.10
2018-05-08T10:00:48.831Z,42.70
2018-05-08T10:03:17.080Z,42.20
2018-05-08T10:05:45.323Z,43.50
2018-05-08T10:08:13.577Z,42.80
2018-05-08T10:10:43.408Z,40.10
2018-05-08T10:13:11.666Z,40.10
2018-05-08T10:15:40.685Z,40.20
2018-05-08T10:18:08.936Z,40.20
2018-05-08T10:20:38.093Z,39.70
2018-05-08T10:23:06.342Z,39.70
2018-05-08T10:25:34.587Z,40.50
2018-05-08T10:28:03.607Z,40.20
2018-05-08T10:30:31.897Z,40.10
2018-05-08T10:33:00.229Z,40.50
2018-05-08T10:35:28.448Z,38.80
2018-05-08T10:37:56.732Z,39.90
2018-05-08T10:40:24.987Z,41.80
2018-05-08T10:42:53.250Z,42.00
2018-05-08T10:45:21.493Z,41.40
2018-05-08T10:47:49.728Z,40.70
2018-05-08T10:50:18.000Z,42.20
2018-05-08T10:52:46.344Z,40.20
2018-05-08T10:55:15.356Z,40.80
2018-05-08T10:57:43.587Z,40.80
2018-05-08T11:00:11.918Z,40.50
2018-05-08T11:02:40.205Z,40.50
2018-05-08T11:05:08.476Z,41.00
2018-05-08T11:07:36.723Z,41.00
2018-05-08T11:10:05.017Z,41.60
2018-05-08T11:12:33.286Z,40.80
2018-05-08T11:15:02.299Z,40.00
2018-05-08T11:17:30.536Z,40.00
2018-05-08T11:19:59.561Z,39.40
2018-05-08T11:22:28.151Z,39.50
2018-05-08T11:24:56.395Z,40.50
2018-05-08T11:27:24.647Z,39.90
2018-05-08T11:29:53.730Z,40.10
2018-05-08T11:32:21.968Z,40.10
2018-05-08T11:34:50.216Z,39.90
2018-05-08T11:37:18.520Z,40.10
2018-05-08T11:39:46.795Z,40.50
2018-05-08T11:42:15.064Z,40.10
2018-05-08T11:44:43.742Z,39.80
2018-05-08T11:47:12.724Z,39.70
2018-05-08T11:49:41.016Z,39.60
2018-05-08T11:52:09.287Z,39.20
2018-05-08T11:54:37.571Z,39.80
2018-05-08T11:57:05.835Z,40.30
2018-05-08T11:59:34.125Z,39.30
2018-05-08T12:02:02.396Z,41.60
2018-05-08T12:04:30.833Z,39.60
2018-05-08T12:06:59.872Z,39.00
2018-05-08T12:09:28.124Z,39.00
2018-05-08T12:11:56.424Z,39.40
2018-05-08T12:14:24.680Z,40.70
2018-05-08T12:16:53.691Z,39.50
2018-05-08T12:19:21.964Z,39.40
2018-05-08T12:21:50.251Z,39.30
2018-05-08T12:24:18.556Z,38.60
2018-05-08T12:26:46.775Z,39.10
2018-05-08T12:29:15.056Z,40.10
2018-05-08T12:31:43.340Z,40.20
2018-05-08T12:34:11.585Z,42.30
2018-05-08T12:36:40.604Z,41.00
2018-05-08T12:39:08.896Z,41.00
2018-05-08T12:41:37.152Z,42.50
2018-05-08T12:44:05.471Z,40.30
2018-05-08T12:46:34.272Z,40.60
2018-05-08T12:49:02.596Z,41.60
2018-05-08T12:51:30.880Z,40.30
2018-05-08T12:53:59.498Z,42.50
2018-05-08T12:56:27.723Z,41.30
2018-05-08T12:58:56.013Z,41.10
2018-05-08T13:01:24.285Z,39.60
2018-05-08T13:03:52.524Z,39.40
2018-05-08T13:06:21.573Z,41.90
2018-05-08T13:08:49.841Z,41.90
2018-05-08T13:11:18.095Z,40.60
2018-05-08T13:13:46.334Z,40.90
2018-05-08T13:16:15.352Z,41.40
2018-05-08T13:18:43.600Z,40.90
2018-05-08T13:21:12.618Z,40.00
2018-05-08T13:23:40.860Z,39.90
2018-05-08T13:26:10.613Z,42.00
2018-05-08T13:28:38.904Z,42.00
2018-05-08T13:31:07.189Z,41.20
2018-05-08T13:33:35.428Z,41.80
2018-05-08T13:36:04.452Z,40.50
2018-05-08T13:38:32.715Z,40.40
2018-05-08T13:41:00.991Z,40.50
2018-05-08T13:43:29.276Z,41.50
2018-05-08T13:45:57.533Z,40.30
2018-05-08T13:48:25.834Z,41.30
2018-05-08T13:50:54.296Z,41.10
2018-05-08T13:53:24.772Z,40.50
2018-05-08T13:55:52.980Z,40.40
2018-05-08T13:58:21.226Z,39.30
2018-05-08T14:00:50.078Z,39.90
2018-05-08T14:03:18.343Z,39.40
2018-05-08T14:05:46.580Z,39.00
2018-05-08T14:08:15.607Z,39.70
2018-05-08T14:10:43.888Z,39.70
2018-05-08T14:13:12.226Z,40.10
2018-05-08T14:15:40.465Z,40.70
2018-05-08T14:18:09.436Z,40.50
2018-05-08T14:20:37.680Z,39.70
2018-05-08T14:23:06.691Z,40.50
2018-05-08T14:25:34.938Z,40.50
2018-05-08T14:28:03.971Z,41.50
2018-05-08T14:30:32.212Z,41.40
2018-05-08T14:33:01.278Z,40.60
2018-05-08T14:35:29.513Z,40.50
2018-05-08T14:37:57.831Z,41.40
2018-05-08T14:40:26.072Z,41.90
2018-05-08T14:42:54.324Z,40.50
2018-05-08T14:45:22.620Z,41.00
2018-05-08T14:47:50.871Z,41.70
2018-05-08T14:50:19.168Z,41.10
2018-05-08T14:52:47.486Z,41.60
2018-05-08T14:55:15.716Z,41.60
2018-05-08T14:57:43.987Z,42.50
2018-05-08T15:00:12.268Z,41.00
2018-05-08T15:02:40.548Z,40.90
2018-05-08T15:05:08.788Z,41.80
2018-05-08T15:07:37.821Z,41.20
2018-05-08T15:10:06.061Z,41.20
2018-05-08T15:12:34.300Z,42.30
2018-05-08T15:15:02.552Z,41.40
2018-05-08T15:17:30.800Z,42.60
2018-05-08T15:19:59.094Z,40.90
2018-05-08T15:22:27.328Z,40.60
2018-05-08T15:24:56.380Z,40.90
2018-05-08T15:27:24.623Z,40.90
2018-05-08T15:29:53.818Z,41.20
2018-05-08T15:32:22.107Z,41.50
2018-05-08T15:34:50.377Z,40.90
2018-05-08T15:37:18.613Z,40.80
2018-05-08T15:39:47.660Z,41.30
2018-05-08T15:42:16.024Z,41.30
2018-05-08T15:44:44.307Z,41.80
2018-05-08T15:47:12.643Z,41.70
2018-05-08T15:49:40.856Z,41.50
2018-05-08T15:52:09.107Z,41.70
2018-05-08T15:54:37.404Z,41.00
2018-05-08T15:57:05.693Z,42.10
2018-05-08T15:59:33.927Z,40.60
2018-05-08T16:02:02.164Z,40.70
2018-05-08T16:04:30.504Z,40.70
2018-05-08T16:06:58.753Z,41.20
2018-05-08T16:09:27.755Z,41.60
2018-05-08T16:11:56.048Z,41.60
2018-05-08T16:14:24.296Z,41.30
2018-05-08T16:16:53.298Z,41.40
2018-05-08T16:19:21.596Z,41.30
2018-05-08T16:21:49.840Z,42.10
2018-05-08T16:24:18.852Z,40.50
2018-05-08T16:26:47.132Z,40.50
2018-05-08T16:29:15.416Z,41.40
2018-05-08T16:31:43.704Z,40.90
2018-05-08T16:34:11.988Z,41.30
2018-05-08T16:36:40.235Z,41.10
2018-05-08T16:39:08.621Z,41.60
2018-05-08T16:41:36.905Z,41.50
2018-05-08T16:44:05.167Z,40.70
2018-05-08T16:46:33.426Z,41.60
2018-05-08T16:49:01.717Z,41.70
2018-05-08T16:51:29.997Z,41.70
2018-05-08T16:53:58.245Z,42.10
2018-05-08T16:56:26.548Z,42.20
2018-05-08T16:58:54.784Z,42.60
2018-05-08T17:01:23.829Z,42.90
2018-05-08T17:03:52.079Z,42.80
2018-05-08T17:06:20.324Z,42.70
2018-05-08T17:08:49.335Z,43.50
2018-05-08T17:11:17.636Z,43.40
2018-05-08T17:13:45.904Z,43.80
2018-05-08T17:16:14.159Z,43.70
2018-05-08T17:18:42.400Z,43.90
2018-05-08T17:21:10.643Z,44.50
2018-05-08T17:23:38.884Z,43.90
2018-05-08T17:26:07.179Z,44.20
2018-05-08T17:28:35.421Z,44.20
2018-05-08T17:31:04.457Z,45.00
2018-05-08T17:33:32.720Z,45.00
2018-05-08T17:36:01.711Z,45.40
2018-05-08T17:38:29.952Z,45.40
2018-05-08T17:40:58.964Z,45.60
2018-05-08T17:43:27.204Z,45.50
2018-05-08T17:45:55.532Z,45.40
2018-05-08T17:48:23.809Z,45.40
2018-05-08T17:50:52.090Z,45.00
2018-05-08T17:53:20.368Z,45.50
2018-05-08T17:55:48.613Z,45.10
2018-05-08T17:58:16.851Z,45.50
2018-05-08T18:00:45.188Z,45.90
2018-05-08T18:03:13.435Z,46.70
2018-05-08T18:05:41.741Z,46.50
2018-05-08T18:08:10.012Z,46.60
2018-05-08T18:10:38.296Z,46.50
2018-05-08T18:13:06.572Z,46.60
2018-05-08T18:15:34.804Z,46.80
2018-05-08T18:18:03.820Z,46.70
2018-05-08T18:20:32.481Z,46.60
2018-05-08T18:23:01.490Z,47.00
2018-05-08T18:25:29.867Z,47.60
2018-05-08T18:27:58.060Z,47.20
2018-05-08T18:30:26.331Z,47.00
2018-05-08T18:32:54.593Z,47.60
2018-05-08T18:35:22.920Z,48.40
2018-05-08T18:37:51.172Z,48.30
2018-05-08T18:40:19.412Z,49.00
2018-05-08T18:42:47.756Z,49.70
2018-05-08T18:45:15.968Z,49.80
2018-05-08T18:47:44.220Z,49.80
2018-05-08T18:50:13.232Z,50.80
2018-05-08T18:52:41.484Z,50.80
2018-05-08T18:55:10.488Z,52.10
2018-05-08T18:57:39.583Z,51.90
2018-05-08T19:00:13.420Z,51.90
2018-05-08T19:02:41.695Z,51.90
2018-05-08T19:05:10.589Z,51.70
2018-05-08T19:07:38.840Z,51.60
2018-05-08T19:10:07.143Z,53.00
2018-05-08T19:12:35.417Z,53.20
2018-05-08T19:15:09.284Z,53.50
2018-05-08T19:17:38.306Z,54.60
2018-05-08T19:20:06.545Z,54.60
2018-05-08T19:22:35.580Z,55.80
2018-05-08T19:25:03.858Z,55.80
2018-05-08T19:27:32.131Z,56.10
2018-05-08T19:30:06.108Z,57.00
2018-05-08T19:32:35.139Z,58.00
2018-05-08T19:35:09.205Z,57.90
2018-05-08T19:37:43.856Z,58.20
2018-05-08T19:40:12.106Z,58.20
2018-05-08T19:42:41.243Z,58.30
2018-05-08T19:45:09.481Z,58.30
2018-05-08T19:47:38.480Z,58.30
2018-05-08T19:50:07.505Z,58.50
2018-05-08T19:52:35.869Z,58.50
2018-05-08T19:55:04.097Z,58.70
2018-05-08T19:57:32.327Z,58.80
2018-05-08T20:00:00.604Z,58.90
2018-05-08T20:02:28.880Z,59.10
2018-05-08T20:04:57.169Z,59.10
2018-05-08T20:07:25.432Z,59.20
2018-05-08T20:09:53.690Z,59.30
2018-05-08T20:12:21.925Z,59.60
2018-05-08T20:14:50.265Z,59.90
2018-05-08T20:17:18.541Z,60.00
2018-05-08T20:19:46.812Z,60.20
2018-05-08T20:22:15.083Z,60.10
2018-05-08T20:24:43.333Z,60.50
2018-05-08T20:27:11.584Z,60.60
2018-05-08T20:29:40.628Z,60.90
2018-05-08T20:32:08.868Z,60.90
2018-05-08T20:34:37.897Z,61.10
2018-05-08T20:37:06.131Z,61.10
2018-05-08T20:39:35.176Z,61.20
2018-05-08T20:42:03.404Z,61.20
2018-05-08T20:44:32.428Z,59.40
2018-05-08T20:47:00.708Z,59.30
2018-05-08T20:49:28.960Z,59.80
2018-05-08T20:51:57.200Z,58.50
2018-05-08T20:54:25.473Z,60.10
2018-05-08T20:56:53.804Z,60.50
2018-05-08T20:59:22.096Z,60.00
2018-05-08T21:01:50.347Z,60.50
2018-05-08T21:04:18.601Z,61.30
2018-05-08T21:06:47.619Z,60.20
2018-05-08T21:09:15.888Z,60.20
2018-05-08T21:11:44.871Z,59.80
2018-05-08T21:14:13.169Z,59.70
2018-05-08T21:16:41.448Z,60.00
2018-05-08T21:19:09.715Z,60.20
2018-05-08T21:21:38.000Z,60.50
2018-05-08T21:24:06.279Z,59.90
2018-05-08T21:26:34.556Z,59.90
2018-05-08T21:29:02.832Z,60.50
2018-05-08T21:31:31.095Z,59.60
2018-05-08T21:33:59.338Z,59.80
2018-05-08T21:36:28.369Z,60.70
2018-05-08T21:38:56.603Z,60.70
2018-05-08T21:41:25.638Z,60.40
2018-05-08T21:43:53.872Z,60.40
2018-05-08T21:46:22.888Z,59.90
2018-05-08T21:48:51.128Z,59.90
2018-05-08T21:51:19.453Z,59.90
2018-05-08T21:53:47.732Z,61.00
2018-05-08T21:56:15.984Z,61.00
2018-05-08T21:58:44.229Z,60.80
2018-05-08T22:01:12.472Z,60.80
2018-05-08T22:03:40.728Z,60.80
2018-05-08T22:06:08.991Z,61.00
2018-05-08T22:08:37.243Z,60.30
2018-05-08T22:11:06.267Z,59.60
2018-05-08T22:13:34.543Z,59.50
2018-05-08T22:16:02.843Z,59.50
2018-05-08T22:18:31.083Z,59.80
2018-05-08T22:20:59.328Z,60.10
2018-05-08T22:23:28.343Z,61.00
2018-05-08T22:25:56.584Z,61.00
2018-05-08T22:28:24.928Z,61.40
2018-05-08T22:30:53.168Z,60.60
2018-05-08T22:33:21.420Z,60.60
2018-05-08T22:35:50.422Z,61.60
2018-05-08T22:38:19.436Z,62.90
2018-05-08T22:40:47.732Z,62.90
2018-05-08T22:43:15.985Z,62.50
2018-05-08T22:45:44.290Z,62.50
2018-05-08T22:48:12.560Z,62.90
2018-05-08T22:50:40.803Z,63.40
2018-05-08T22:53:09.827Z,64.40
2018-05-08T22:55:38.072Z,64.40
2018-05-08T22:58:06.380Z,64.00
2018-05-08T23:00:34.652Z,63.80
2018-05-08T23:03:02.905Z,64.30
2018-05-08T23:05:31.200Z,65.00
2018-05-08T23:07:59.459Z,65.30
2018-05-08T23:10:27.700Z,65.70
2018-05-08T23:12:56.033Z,65.50
2018-05-08T23:15:24.302Z,65.50
2018-05-08T23:17:52.553Z,65.70
2018-05-08T23:20:21.552Z,65.60
2018-05-08T23:22:49.843Z,65.50
2018-05-08T23:25:18.089Z,65.10
2018-05-08T23:27:47.116Z,65.90
2018-05-08T23:30:15.355Z,65.80
2018-05-08T23:32:44.376Z,65.80
2018-05-08T23:35:12.617Z,65.80
2018-05-08T23:37:41.652Z,64.60
2018-05-08T23:40:09.932Z,64.50
2018-05-08T23:42:38.208Z,65.00
2018-05-08T23:45:07.355Z,65.30
2018-05-08T23:47:36.360Z,65.60
2018-05-08T23:50:04.661Z,65.50
2018-05-08T23:52:32.905Z,66.20
2018-05-08T23:55:01.937Z,66.80
2018-05-08T23:57:30.213Z,66.70
2018-05-08T23:59:58.465Z,67.40
